createdAt,value
2017-11-01T00:01:34.103Z,35.70
2017-11-01T00:04:01.672Z,34.38
2017-11-01T00:06:29.276Z,36.20
2017-11-01T00:08:56.858Z,25.03
2017-11-01T00:11:24.438Z,33.90
2017-11-01T00:13:52.036Z,43.43
2017-11-01T00:16:27.219Z,38.10
2017-11-01T00:18:54.830Z,55.50
2017-11-01T00:21:23.152Z,43.80
2017-11-01T00:23:50.709Z,36.60
2017-11-01T00:26:18.422Z,43.93
2017-11-01T00:28:45.984Z,43.03
2017-11-01T00:31:14.339Z,38.37
2017-11-01T00:33:41.914Z,49.70
2017-11-01T00:36:09.481Z,49.93
2017-11-01T00:38:37.082Z,45.17
2017-11-01T00:41:04.631Z,40.17
2017-11-01T00:43:32.234Z,43.83
2017-11-01T00:45:59.815Z,37.00
2017-11-01T00:48:28.190Z,40.70
2017-11-01T00:50:55.784Z,37.77
2017-11-01T00:53:23.373Z,43.27
2017-11-01T00:55:50.937Z,45.07
2017-11-01T00:58:18.492Z,40.20
2017-11-01T01:00:46.090Z,32.20
2017-11-01T01:03:13.656Z,34.70
2017-11-01T01:05:42.127Z,35.90
2017-11-01T01:08:09.696Z,50.35
2017-11-01T01:10:37.264Z,47.13
2017-11-01T01:13:05.607Z,37.40
2017-11-01T01:15:33.187Z,50.97
2017-11-01T01:18:01.562Z,45.60
2017-11-01T01:20:29.142Z,44.83
2017-11-01T01:22:57.490Z,33.43
2017-11-01T01:25:25.125Z,51.60
2017-11-01T01:27:52.684Z,48.20
2017-11-01T01:30:20.276Z,41.10
2017-11-01T01:32:47.843Z,32.03
2017-11-01T01:35:15.400Z,47.80
2017-11-01T01:37:42.993Z,54.47
2017-11-01T01:40:10.573Z,40.70
2017-11-01T01:42:38.160Z,39.43
2017-11-01T01:45:05.730Z,43.43
2017-11-01T01:47:33.316Z,49.17
2017-11-01T01:50:01.001Z,51.33
2017-11-01T01:52:28.578Z,45.90
2017-11-01T01:54:56.159Z,43.67
2017-11-01T01:57:23.719Z,48.90
2017-11-01T01:59:51.277Z,47.43
2017-11-01T02:02:18.856Z,48.80
2017-11-01T02:04:47.204Z,39.60
2017-11-01T02:07:14.806Z,47.37
2017-11-01T02:09:42.382Z,44.43
2017-11-01T02:12:09.949Z,42.97
2017-11-01T02:14:37.538Z,35.60
2017-11-01T02:17:05.092Z,40.53
2017-11-01T02:19:32.695Z,32.40
2017-11-01T02:22:00.261Z,33.03
2017-11-01T02:24:27.819Z,34.90
2017-11-01T02:26:55.409Z,35.70
2017-11-01T02:29:22.975Z,40.90
2017-11-01T02:31:50.659Z,31.20
2017-11-01T02:34:18.229Z,42.17
2017-11-01T02:36:45.805Z,37.13
2017-11-01T02:39:13.384Z,43.33
2017-11-01T02:41:41.726Z,43.13
2017-11-01T02:44:09.332Z,39.10
2017-11-01T02:46:37.652Z,32.10
2017-11-01T02:49:05.231Z,40.80
2017-11-01T02:51:32.824Z,52.87
2017-11-01T02:54:01.162Z,46.97
2017-11-01T02:56:28.767Z,48.30
2017-11-01T02:58:57.114Z,48.83
2017-11-01T03:01:24.673Z,48.40
2017-11-01T03:03:52.252Z,58.00
2017-11-01T03:06:20.634Z,47.50
2017-11-01T03:08:48.976Z,55.17
2017-11-01T03:11:16.540Z,56.07
2017-11-01T03:13:44.105Z,49.77
2017-11-01T03:16:11.685Z,53.30
2017-11-01T03:18:39.265Z,56.00
2017-11-01T03:21:06.882Z,45.83
2017-11-01T03:23:34.435Z,56.80
2017-11-01T03:26:02.022Z,57.73
2017-11-01T03:28:29.596Z,55.20
2017-11-01T03:30:57.945Z,54.80
2017-11-01T03:33:25.550Z,44.63
2017-11-01T03:35:53.126Z,49.23
2017-11-01T03:38:20.715Z,51.30
2017-11-01T03:40:48.318Z,58.67
2017-11-01T03:43:16.702Z,60.53
2017-11-01T03:45:44.282Z,56.97
2017-11-01T03:48:11.879Z,56.00
2017-11-01T03:50:39.474Z,65.13
2017-11-01T03:53:07.803Z,68.73
2017-11-01T03:55:35.388Z,76.07
2017-11-01T03:58:02.944Z,55.90
2017-11-01T04:00:30.556Z,67.90
2017-11-01T04:02:58.138Z,64.73
2017-11-01T04:05:25.737Z,66.83
2017-11-01T04:07:54.063Z,72.77
2017-11-01T04:10:21.642Z,80.40
2017-11-01T04:12:49.243Z,76.50
2017-11-01T04:15:17.592Z,74.03
2017-11-01T04:17:45.223Z,74.50
2017-11-01T04:20:13.673Z,78.23
2017-11-01T04:22:41.227Z,76.03
2017-11-01T04:25:09.572Z,73.83
2017-11-01T04:27:37.170Z,77.57
2017-11-01T04:30:04.771Z,85.83
2017-11-01T04:32:32.346Z,81.00
2017-11-01T04:34:59.950Z,74.90
2017-11-01T04:37:27.526Z,77.67
2017-11-01T04:39:55.421Z,70.17
2017-11-01T04:42:22.999Z,79.77
2017-11-01T04:44:50.578Z,63.70
2017-11-01T04:47:18.939Z,75.27
2017-11-01T04:49:48.008Z,73.23
2017-11-01T04:52:15.589Z,85.03
2017-11-01T04:54:43.148Z,68.13
2017-11-01T04:57:10.724Z,75.13
2017-11-01T04:59:38.284Z,77.50
2017-11-01T05:05:01.416Z,64.27
2017-11-01T05:07:29.003Z,64.57
2017-11-01T05:09:58.412Z,71.80
2017-11-01T05:12:27.806Z,73.90
2017-11-01T05:14:55.391Z,69.27
2017-11-01T05:17:23.724Z,73.03
2017-11-01T05:19:51.335Z,69.10
2017-11-01T05:22:19.757Z,68.40
2017-11-01T05:24:53.064Z,72.90
2017-11-01T05:27:20.691Z,80.73
2017-11-01T05:29:48.262Z,69.23
2017-11-01T05:32:15.848Z,72.77
2017-11-01T05:34:46.292Z,71.37
2017-11-01T05:37:13.877Z,67.77
2017-11-01T05:39:42.200Z,71.63
2017-11-01T05:42:09.787Z,66.30
2017-11-01T05:44:38.158Z,74.73
2017-11-01T05:47:05.773Z,73.93
2017-11-01T05:49:33.377Z,64.40
2017-11-01T05:52:01.006Z,57.00
2017-11-01T05:54:28.578Z,63.53
2017-11-01T05:56:56.151Z,62.93
2017-11-01T05:59:23.708Z,68.40
2017-11-01T06:01:51.317Z,69.20
2017-11-01T06:04:18.895Z,66.63
2017-11-01T06:06:46.466Z,70.60
2017-11-01T06:09:14.044Z,55.37
2017-11-01T06:11:41.622Z,66.10
2017-11-01T06:14:09.195Z,64.03
2017-11-01T06:16:37.532Z,68.97
2017-11-01T06:19:05.134Z,69.23
2017-11-01T06:21:33.481Z,62.57
2017-11-01T06:24:01.091Z,59.00
2017-11-01T06:26:28.663Z,76.53
2017-11-01T06:28:56.235Z,65.20
2017-11-01T06:31:23.830Z,62.10
2017-11-01T06:33:52.205Z,74.97
2017-11-01T06:36:19.801Z,55.33
2017-11-01T06:38:48.138Z,61.93
2017-11-01T06:41:15.692Z,63.47
2017-11-01T06:43:43.263Z,66.53
2017-11-01T06:46:10.838Z,66.13
2017-11-01T06:48:38.436Z,60.83
2017-11-01T06:51:06.018Z,66.67
2017-11-01T06:53:33.584Z,57.00
2017-11-01T06:56:01.186Z,56.20
2017-11-01T06:58:29.519Z,61.00
2017-11-01T07:00:57.126Z,56.00
2017-11-01T07:03:27.392Z,45.70
2017-11-01T07:05:54.979Z,55.53
2017-11-01T07:08:22.556Z,49.37
2017-11-01T07:10:50.134Z,55.23
2017-11-01T07:13:18.480Z,57.00
2017-11-01T07:15:46.076Z,55.37
2017-11-01T07:18:14.442Z,50.83
2017-11-01T07:20:42.779Z,54.50
2017-11-01T07:23:10.430Z,49.73
2017-11-01T07:25:38.026Z,52.43
2017-11-01T07:28:05.632Z,53.07
2017-11-01T07:30:33.221Z,52.27
2017-11-01T07:33:00.799Z,61.27
2017-11-01T07:35:28.361Z,65.23
2017-11-01T07:37:57.455Z,67.00
2017-11-01T07:40:25.184Z,63.33
2017-11-01T07:42:52.787Z,68.37
2017-11-01T07:45:20.373Z,57.20
2017-11-01T07:47:47.939Z,53.33
2017-11-01T07:50:15.515Z,69.70
2017-11-01T07:52:43.073Z,62.40
2017-11-01T07:55:10.698Z,60.13
2017-11-01T07:57:39.032Z,55.80
2017-11-01T08:00:06.607Z,56.07
2017-11-01T08:02:34.183Z,66.23
2017-11-01T08:05:01.823Z,59.07
2017-11-01T08:07:29.427Z,56.60
2017-11-01T08:09:57.751Z,59.63
2017-11-01T08:12:25.325Z,59.63
2017-11-01T08:14:52.914Z,50.30
2017-11-01T08:17:21.248Z,49.43
2017-11-01T08:19:48.881Z,55.97
2017-11-01T08:22:16.559Z,59.93
2017-11-01T08:24:44.134Z,58.83
2017-11-01T08:27:11.716Z,50.77
2017-11-01T08:29:39.294Z,48.93
2017-11-01T08:32:07.666Z,58.27
2017-11-01T08:34:36.023Z,55.73
2017-11-01T08:37:03.599Z,54.43
2017-11-01T08:39:31.210Z,52.30
2017-11-01T08:41:58.772Z,44.60
2017-11-01T08:44:26.375Z,52.97
2017-11-01T08:46:54.723Z,45.10
2017-11-01T08:49:22.443Z,42.53
2017-11-01T08:51:50.026Z,36.13
2017-11-01T08:54:17.629Z,34.37
2017-11-01T08:56:45.206Z,36.87
2017-11-01T08:59:13.544Z,29.53
2017-11-01T09:01:41.141Z,36.33
2017-11-01T09:04:09.486Z,35.60
2017-11-01T09:06:37.067Z,38.00
2017-11-01T09:09:04.638Z,38.50
2017-11-01T09:11:33.011Z,44.33
2017-11-01T09:14:00.567Z,39.60
2017-11-01T09:16:28.168Z,33.40
2017-11-01T09:18:55.754Z,42.77
2017-11-01T09:21:23.356Z,34.53
2017-11-01T09:23:51.707Z,38.37
2017-11-01T09:26:20.053Z,42.93
2017-11-01T09:28:47.730Z,32.10
2017-11-01T09:31:15.329Z,38.10
2017-11-01T09:33:43.674Z,36.90
2017-11-01T09:36:11.244Z,34.60
2017-11-01T09:38:38.841Z,45.27
2017-11-01T09:41:07.177Z,36.30
2017-11-01T09:43:34.778Z,41.87
2017-11-01T09:46:03.122Z,36.50
2017-11-01T09:48:30.743Z,34.60
2017-11-01T09:50:58.342Z,42.27
2017-11-01T09:53:25.899Z,36.10
2017-11-01T09:55:53.511Z,36.73
2017-11-01T09:58:21.072Z,34.00
2017-11-01T10:00:48.652Z,28.50
2017-11-01T10:03:16.236Z,29.13
2017-11-01T10:05:43.814Z,31.73
2017-11-01T10:08:12.191Z,29.57
2017-11-01T10:10:39.768Z,35.50
2017-11-01T10:13:08.114Z,31.77
2017-11-01T10:15:36.483Z,32.60
2017-11-01T10:18:04.048Z,29.10
2017-11-01T10:20:31.658Z,32.37
2017-11-01T10:22:59.224Z,36.20
2017-11-01T10:25:26.792Z,29.20
2017-11-01T10:27:54.376Z,22.87
2017-11-01T10:30:21.952Z,28.43
2017-11-01T10:32:49.561Z,29.70
2017-11-01T10:35:17.131Z,30.17
2017-11-01T10:37:44.693Z,23.97
2017-11-01T10:40:12.294Z,35.50
2017-11-01T10:42:39.875Z,30.83
2017-11-01T10:45:08.240Z,22.47
2017-11-01T10:47:35.805Z,26.50
2017-11-01T10:50:04.145Z,22.20
2017-11-01T10:52:31.746Z,22.60
2017-11-01T10:55:00.078Z,25.23
2017-11-01T10:57:27.735Z,30.70
2017-11-01T10:59:55.300Z,29.90
2017-11-01T11:02:22.906Z,42.23
2017-11-01T11:04:51.250Z,21.13
2017-11-01T11:07:18.831Z,26.13
2017-11-01T11:09:46.411Z,22.80
2017-11-01T11:12:14.743Z,31.17
2017-11-01T11:14:42.320Z,27.70
2017-11-01T11:17:09.894Z,26.30
2017-11-01T11:19:38.247Z,30.50
2017-11-01T11:22:05.827Z,32.63
2017-11-01T11:24:33.407Z,22.60
2017-11-01T11:27:01.828Z,24.83
2017-11-01T11:29:29.487Z,20.23
2017-11-01T11:31:57.083Z,20.70
2017-11-01T11:34:24.654Z,20.03
2017-11-01T11:36:52.265Z,21.30
2017-11-01T11:39:19.824Z,30.70
2017-11-01T11:41:47.392Z,23.37
2017-11-01T11:44:14.999Z,22.57
2017-11-01T11:46:43.343Z,26.47
2017-11-01T11:49:10.920Z,19.90
2017-11-01T11:51:38.486Z,21.70
2017-11-01T11:54:06.095Z,30.47
2017-11-01T11:56:33.674Z,23.33
2017-11-01T11:59:01.284Z,22.63
2017-11-01T12:01:29.632Z,26.30
2017-11-01T12:03:57.187Z,22.67
2017-11-01T12:06:24.923Z,20.63
2017-11-01T12:08:53.400Z,22.83
2017-11-01T12:11:20.957Z,20.20
2017-11-01T12:13:48.594Z,18.20
2017-11-01T12:16:16.161Z,21.50
2017-11-01T12:18:43.767Z,19.73
2017-11-01T12:21:11.324Z,15.37
2017-11-01T12:23:38.889Z,24.10
2017-11-01T12:26:07.277Z,19.20
2017-11-01T12:28:35.658Z,22.83
2017-11-01T12:31:03.253Z,15.37
2017-11-01T12:33:30.821Z,22.03
2017-11-01T12:35:58.400Z,18.00
2017-11-01T12:38:26.006Z,17.63
2017-11-01T12:40:54.333Z,18.17
2017-11-01T12:43:21.912Z,19.13
2017-11-01T12:45:49.479Z,19.83
2017-11-01T12:48:17.064Z,21.23
2017-11-01T12:50:45.414Z,12.23
2017-11-01T12:53:12.976Z,16.90
2017-11-01T12:55:40.552Z,19.37
2017-11-01T12:58:08.112Z,19.50
2017-11-01T13:00:35.746Z,18.50
2017-11-01T13:03:03.318Z,20.20
2017-11-01T13:05:30.906Z,25.73
2017-11-01T13:07:59.257Z,16.43
2017-11-01T13:10:26.844Z,16.83
2017-11-01T13:12:54.453Z,19.20
2017-11-01T13:15:22.107Z,18.10
2017-11-01T13:17:49.706Z,17.57
2017-11-01T13:20:17.306Z,17.23
2017-11-01T13:22:44.922Z,16.13
2017-11-01T13:25:12.484Z,12.60
2017-11-01T13:27:41.561Z,16.83
2017-11-01T13:30:09.148Z,14.17
2017-11-01T13:32:37.577Z,15.30
2017-11-01T13:35:05.242Z,15.53
2017-11-01T13:37:32.847Z,26.33
2017-11-01T13:40:00.472Z,17.50
2017-11-01T13:42:28.052Z,24.93
2017-11-01T13:44:55.673Z,14.63
2017-11-01T13:47:23.260Z,23.37
2017-11-01T13:49:50.815Z,19.10
2017-11-01T13:52:18.487Z,16.87
2017-11-01T13:54:46.049Z,17.30
2017-11-01T13:57:13.622Z,23.33
2017-11-01T13:59:41.247Z,15.57
2017-11-01T14:02:08.890Z,21.00
2017-11-01T14:04:36.476Z,16.03
2017-11-01T14:07:04.054Z,20.43
2017-11-01T14:09:33.119Z,12.90
2017-11-01T14:12:00.726Z,16.57
2017-11-01T14:14:28.290Z,15.37
2017-11-01T14:16:56.644Z,21.43
2017-11-01T14:19:24.646Z,18.47
2017-11-01T14:21:53.346Z,18.10
2017-11-01T14:24:20.909Z,21.43
2017-11-01T14:26:48.949Z,14.90
2017-11-01T14:29:17.737Z,18.30
2017-11-01T14:31:46.080Z,21.80
2017-11-01T14:34:13.676Z,15.87
2017-11-01T14:36:42.009Z,17.40
2017-11-01T14:39:09.598Z,13.70
2017-11-01T14:41:37.165Z,18.97
2017-11-01T14:44:04.755Z,18.63
2017-11-01T14:46:32.312Z,13.20
2017-11-01T14:49:00.640Z,18.93
2017-11-01T14:51:28.212Z,17.10
2017-11-01T14:53:55.787Z,16.63
2017-11-01T14:56:23.394Z,17.40
2017-11-01T14:58:50.973Z,18.10
2017-11-01T15:01:18.550Z,22.93
2017-11-01T15:03:46.163Z,19.47
2017-11-01T15:06:13.736Z,22.03
2017-11-01T15:08:41.348Z,22.50
2017-11-01T15:11:08.916Z,40.40
2017-11-01T15:13:37.244Z,30.07
2017-11-01T15:16:04.818Z,16.90
2017-11-01T15:18:32.399Z,50.07
2017-11-01T15:21:00.003Z,17.87
2017-11-01T15:23:27.563Z,20.63
2017-11-01T15:25:55.138Z,26.10
2017-11-01T15:28:22.726Z,20.03
2017-11-01T15:30:50.357Z,18.70
2017-11-01T15:33:17.951Z,56.30
2017-11-01T15:35:45.534Z,82.37
2017-11-01T15:38:13.873Z,24.30
2017-11-01T15:40:41.472Z,18.73
2017-11-01T15:43:09.826Z,23.43
2017-11-01T15:45:37.447Z,37.23
2017-11-01T15:48:05.396Z,36.23
2017-11-01T15:50:33.018Z,26.37
2017-11-01T15:53:00.663Z,23.67
2017-11-01T15:55:28.229Z,22.40
2017-11-01T15:57:55.842Z,18.27
2017-11-01T16:00:23.431Z,23.80
2017-11-01T16:02:50.992Z,30.13
2017-11-01T16:05:18.580Z,21.17
2017-11-01T16:07:46.152Z,31.37
2017-11-01T16:10:14.514Z,22.00
2017-11-01T16:12:42.079Z,26.57
2017-11-01T16:15:09.654Z,22.43
2017-11-01T16:17:38.022Z,25.67
2017-11-01T16:20:06.357Z,17.13
2017-11-01T16:22:33.962Z,20.80
2017-11-01T16:25:02.292Z,20.17
2017-11-01T16:27:29.879Z,24.00
2017-11-01T16:29:58.251Z,23.73
2017-11-01T16:32:26.607Z,22.57
2017-11-01T16:34:54.205Z,23.40
2017-11-01T16:37:21.765Z,20.07
2017-11-01T16:39:49.326Z,21.57
2017-11-01T16:42:16.929Z,16.47
2017-11-01T16:44:44.505Z,23.90
2017-11-01T16:47:12.104Z,18.70
2017-11-01T16:49:39.673Z,22.67
2017-11-01T16:52:08.008Z,26.53
2017-11-01T16:54:35.623Z,31.43
2017-11-01T16:57:03.210Z,22.87
2017-11-01T16:59:30.804Z,27.77
2017-11-01T17:01:58.377Z,19.53
2017-11-01T17:04:25.962Z,23.47
2017-11-01T17:06:54.311Z,28.73
2017-11-01T17:09:21.880Z,30.23
2017-11-01T17:11:50.254Z,22.00
2017-11-01T17:14:17.820Z,19.60
2017-11-01T17:16:46.195Z,144.43
2017-11-01T17:19:14.547Z,173.40
2017-11-01T17:21:42.154Z,118.80
2017-11-01T17:24:10.519Z,160.63
2017-11-01T17:26:38.871Z,22.53
2017-11-01T17:29:06.443Z,25.80
2017-11-01T17:31:34.029Z,31.43
2017-11-01T17:34:02.374Z,20.23
2017-11-01T17:36:31.478Z,33.67
2017-11-01T17:38:59.916Z,22.80
2017-11-01T17:41:27.524Z,24.20
2017-11-01T17:43:55.957Z,18.87
2017-11-01T17:46:23.515Z,30.20
2017-11-01T17:48:51.098Z,28.93
2017-11-01T17:51:18.669Z,24.30
2017-11-01T17:53:46.267Z,24.60
2017-11-01T17:56:13.843Z,31.50
2017-11-01T17:58:41.427Z,22.50
2017-11-01T18:01:09.034Z,25.77
2017-11-01T18:03:37.365Z,23.40
2017-11-01T18:06:04.949Z,19.20
2017-11-01T18:08:32.526Z,23.00
2017-11-01T18:11:00.899Z,22.33
2017-11-01T18:13:29.233Z,25.73
2017-11-01T18:15:56.895Z,21.20
2017-11-01T18:18:24.486Z,17.40
2017-11-01T18:20:52.089Z,20.43
2017-11-01T18:23:19.672Z,15.57
2017-11-01T18:25:47.240Z,19.80
2017-11-01T18:28:14.827Z,16.90
2017-11-01T18:30:42.379Z,17.00
2017-11-01T18:33:10.135Z,14.53
2017-11-01T18:35:37.716Z,20.37
2017-11-01T18:38:06.066Z,17.07
2017-11-01T18:40:33.671Z,20.93
2017-11-01T18:43:02.014Z,39.70
2017-11-01T18:45:29.612Z,14.27
2017-11-01T18:47:57.933Z,19.23
2017-11-01T18:50:25.531Z,16.47
2017-11-01T18:52:53.104Z,21.67
2017-11-01T18:55:21.465Z,15.67
2017-11-01T18:57:49.839Z,21.43
2017-11-01T19:00:17.427Z,18.77
2017-11-01T19:02:45.840Z,25.13
2017-11-01T19:05:13.432Z,20.47
2017-11-01T19:07:41.074Z,18.10
2017-11-01T19:10:08.660Z,16.27
2017-11-01T19:12:36.254Z,14.30
2017-11-01T19:15:03.853Z,17.07
2017-11-01T19:17:31.435Z,12.57
2017-11-01T19:19:59.811Z,9.17
2017-11-01T19:22:27.402Z,10.60
2017-11-01T19:24:55.818Z,11.23
2017-11-01T19:27:23.415Z,7.90
2017-11-01T19:29:51.014Z,8.27
2017-11-01T19:32:18.610Z,15.83
2017-11-01T19:34:46.217Z,20.20
2017-11-01T19:37:14.590Z,13.97
2017-11-01T19:39:42.185Z,11.43
2017-11-01T19:42:09.767Z,37.07
2017-11-01T19:44:37.370Z,24.47
2017-11-01T19:47:05.722Z,19.53
2017-11-01T19:49:33.317Z,17.97
2017-11-01T19:52:00.914Z,17.30
2017-11-01T19:54:28.483Z,13.57
2017-11-01T19:56:56.102Z,12.20
2017-11-01T19:59:23.664Z,17.20
2017-11-01T20:01:51.291Z,9.37
2017-11-01T20:04:18.869Z,14.23
2017-11-01T20:06:47.223Z,12.00
2017-11-01T20:09:14.833Z,10.93
2017-11-01T20:11:42.432Z,17.17
2017-11-01T20:14:10.015Z,8.23
2017-11-01T20:16:37.615Z,9.47
2017-11-01T20:19:05.214Z,12.00
2017-11-01T20:21:32.780Z,15.03
2017-11-01T20:24:00.386Z,13.77
2017-11-01T20:26:27.954Z,11.07
2017-11-01T20:28:55.540Z,15.47
2017-11-01T20:31:23.121Z,7.33
2017-11-01T20:33:50.695Z,11.30
2017-11-01T20:36:19.131Z,10.87
2017-11-01T20:38:46.724Z,12.00
2017-11-01T20:41:15.797Z,7.70
2017-11-01T20:43:43.393Z,19.63
2017-11-01T20:46:11.751Z,7.67
2017-11-01T20:48:39.361Z,7.17
2017-11-01T20:51:06.947Z,6.87
2017-11-01T20:53:34.528Z,10.77
2017-11-01T20:56:02.099Z,10.67
2017-11-01T20:58:29.689Z,9.43
2017-11-01T21:00:57.270Z,8.73
2017-11-01T21:03:24.848Z,12.37
2017-11-01T21:05:52.432Z,10.03
2017-11-01T21:08:20.037Z,17.53
2017-11-01T21:10:47.615Z,7.77
2017-11-01T21:13:15.222Z,12.37
2017-11-01T21:15:42.810Z,7.13
2017-11-01T21:18:10.385Z,15.60
2017-11-01T21:20:37.979Z,9.27
2017-11-01T21:23:05.545Z,10.10
2017-11-01T21:25:33.133Z,12.60
2017-11-01T21:28:01.476Z,22.20
2017-11-01T21:30:29.050Z,8.40
2017-11-01T21:32:56.652Z,8.60
2017-11-01T21:35:24.230Z,7.40
2017-11-01T21:37:51.832Z,9.13
2017-11-01T21:40:20.182Z,10.80
2017-11-01T21:42:47.763Z,13.83
2017-11-01T21:45:15.365Z,10.80
2017-11-01T21:47:42.928Z,7.13
2017-11-01T21:50:10.509Z,8.90
2017-11-01T21:52:38.087Z,6.73
2017-11-01T21:55:05.689Z,7.93
2017-11-01T21:57:34.044Z,10.33
2017-11-01T22:00:01.606Z,5.50
2017-11-01T22:02:29.540Z,8.43
2017-11-01T22:04:57.118Z,9.03
2017-11-01T22:07:24.728Z,5.23
2017-11-01T22:09:52.304Z,7.63
2017-11-01T22:12:19.867Z,11.53
2017-11-01T22:14:47.439Z,9.33
2017-11-01T22:17:15.034Z,10.03
2017-11-01T22:19:43.392Z,11.93
2017-11-01T22:22:10.958Z,9.50
2017-11-01T22:24:38.524Z,8.13
2017-11-01T22:27:06.120Z,6.50
2017-11-01T22:29:33.696Z,11.37
2017-11-01T22:32:01.308Z,4.43
2017-11-01T22:34:28.877Z,12.90
2017-11-01T22:36:56.443Z,13.90
2017-11-01T22:39:24.798Z,5.13
2017-11-01T22:41:53.891Z,10.07
2017-11-01T22:44:21.526Z,5.40
2017-11-01T22:46:49.088Z,6.47
2017-11-01T22:49:16.663Z,7.43
2017-11-01T22:51:44.249Z,8.67
2017-11-01T22:54:11.812Z,7.07
2017-11-01T22:56:39.410Z,10.00
2017-11-01T22:59:06.996Z,10.53
2017-11-01T23:01:34.572Z,9.03
2017-11-01T23:04:02.184Z,11.60
2017-11-01T23:06:29.795Z,14.77
2017-11-01T23:08:57.352Z,4.03
2017-11-01T23:11:26.574Z,5.00
2017-11-01T23:13:54.916Z,13.53
2017-11-01T23:16:22.480Z,14.10
2017-11-01T23:18:50.052Z,9.70
2017-11-01T23:21:17.622Z,8.50
2017-11-01T23:23:45.222Z,6.30
2017-11-01T23:26:12.780Z,12.77
2017-11-01T23:28:40.358Z,15.30
2017-11-01T23:31:07.936Z,4.90
2017-11-01T23:33:35.491Z,8.17
2017-11-01T23:36:03.071Z,8.63
2017-11-01T23:38:32.162Z,13.73
2017-11-01T23:41:00.512Z,6.07
2017-11-01T23:43:28.120Z,6.13
2017-11-01T23:45:56.553Z,14.47
2017-11-01T23:48:24.150Z,5.10
2017-11-01T23:50:51.724Z,16.33
2017-11-01T23:53:20.048Z,8.37
2017-11-01T23:55:47.642Z,11.07
2017-11-01T23:58:15.204Z,6.43
